createdAt,value
2017-02-17T00:00:53.580Z,1024.9
2017-02-17T00:01:56.037Z,1024.9
2017-02-17T00:02:58.990Z,1024.9
2017-02-17T00:04:01.439Z,1024.9
2017-02-17T00:05:03.911Z,1024.8
2017-02-17T00:06:06.370Z,1024.8
2017-02-17T00:07:09.166Z,1024.7
2017-02-17T00:08:11.622Z,1024.7
2017-02-17T00:09:14.086Z,1024.7
2017-02-17T00:10:17.067Z,1024.8
2017-02-17T00:11:19.351Z,1024.7
2017-02-17T00:12:22.145Z,1024.8
2017-02-17T00:13:24.599Z,1024.7
2017-02-17T00:14:27.048Z,1024.7
2017-02-17T00:16:32.438Z,1024.8
2017-02-17T00:17:34.900Z,1024.7
2017-02-17T00:18:37.544Z,1024.8
2017-02-17T00:19:39.998Z,1024.7
2017-02-17T00:20:42.951Z,1024.7
2017-02-17T00:21:45.424Z,1024.7
2017-02-17T00:22:47.888Z,1024.7
2017-02-17T00:23:50.681Z,1024.7
2017-02-17T00:24:53.162Z,1024.7
2017-02-17T00:25:55.627Z,1024.7
2017-02-17T00:26:58.583Z,1024.6
2017-02-17T00:28:01.045Z,1024.6
2017-02-17T00:29:03.510Z,1024.6
2017-02-17T00:30:05.959Z,1024.6
2017-02-17T00:31:08.751Z,1024.6
2017-02-17T00:32:11.234Z,1024.7
2017-02-17T00:33:13.693Z,1024.6
2017-02-17T00:34:16.662Z,1024.6
2017-02-17T00:35:19.281Z,1024.6
2017-02-17T00:36:21.894Z,1024.6
2017-02-17T00:37:24.428Z,1024.6
2017-02-17T00:38:26.881Z,1024.6
2017-02-17T00:39:29.337Z,1024.5
2017-02-17T00:40:31.802Z,1024.5
2017-02-17T00:41:34.691Z,1024.5
2017-02-17T00:42:37.144Z,1024.5
2017-02-17T00:43:39.619Z,1024.5
2017-02-17T00:44:42.582Z,1024.5
2017-02-17T00:45:45.043Z,1024.6
2017-02-17T00:46:47.545Z,1024.6
2017-02-17T00:47:50.022Z,1024.5
2017-02-17T00:48:52.503Z,1024.5
2017-02-17T00:49:55.479Z,1024.5
2017-02-17T00:50:57.938Z,1024.5
2017-02-17T00:52:00.399Z,1024.5
2017-02-17T00:53:02.892Z,1024.5
2017-02-17T00:55:08.272Z,1024.5
2017-02-17T00:56:11.063Z,1024.5
2017-02-17T00:57:13.343Z,1024.5
2017-02-17T00:58:15.810Z,1024.5
2017-02-17T00:59:18.605Z,1024.5
2017-02-17T01:00:21.063Z,1024.4
2017-02-17T01:01:24.034Z,1024.4
2017-02-17T01:02:26.500Z,1024.4
2017-02-17T01:03:28.955Z,1024.4
2017-02-17T01:04:31.401Z,1024.4
2017-02-17T01:05:34.365Z,1024.5
2017-02-17T01:06:36.820Z,1024.5
2017-02-17T01:07:39.284Z,1024.4
2017-02-17T01:08:41.738Z,1024.4
2017-02-17T01:09:44.707Z,1024.4
2017-02-17T01:10:47.163Z,1024.4
2017-02-17T01:11:49.637Z,1024.4
2017-02-17T01:12:52.101Z,1024.4
2017-02-17T01:13:55.074Z,1024.4
2017-02-17T01:15:59.933Z,1024.4
2017-02-17T01:17:02.425Z,1024.4
2017-02-17T01:18:05.381Z,1024.4
2017-02-17T01:19:07.675Z,1024.4
2017-02-17T01:20:10.649Z,1024.4
2017-02-17T01:21:13.118Z,1024.4
2017-02-17T01:22:15.589Z,1024.3
2017-02-17T01:23:18.376Z,1024.3
2017-02-17T01:24:20.656Z,1024.3
2017-02-17T01:25:23.150Z,1024.3
2017-02-17T01:27:28.507Z,1024.3
2017-02-17T01:28:31.298Z,1024.2
2017-02-17T01:29:33.775Z,1024.2
2017-02-17T01:30:36.249Z,1024.2
2017-02-17T01:31:38.718Z,1024.1
2017-02-17T01:33:44.079Z,1024.1
2017-02-17T01:34:46.533Z,1024.1
2017-02-17T01:35:49.490Z,1024.1
2017-02-17T01:36:51.938Z,1024.1
2017-02-17T01:37:54.399Z,1024.1
2017-02-17T01:38:56.848Z,1024
2017-02-17T01:39:59.829Z,1024
2017-02-17T01:41:02.284Z,1024.1
2017-02-17T01:42:04.739Z,1024.1
2017-02-17T01:43:07.205Z,1024.1
2017-02-17T01:44:10.180Z,1024.1
2017-02-17T01:45:12.642Z,1024.1
2017-02-17T01:46:15.102Z,1024.1
2017-02-17T01:47:17.565Z,1024.1
2017-02-17T01:48:20.519Z,1024.1
2017-02-17T01:49:22.812Z,1024
2017-02-17T01:50:25.277Z,1024
2017-02-17T01:51:28.256Z,1024
2017-02-17T01:52:30.706Z,1024.1
2017-02-17T01:53:33.167Z,1024.1
2017-02-17T01:54:35.617Z,1024
2017-02-17T01:55:38.578Z,1024
2017-02-17T01:56:41.045Z,1024
2017-02-17T01:57:43.500Z,1024
2017-02-17T01:58:45.961Z,1024
2017-02-17T01:59:48.926Z,1024
2017-02-17T02:00:51.383Z,1024
2017-02-17T02:02:56.243Z,1023.9
2017-02-17T02:03:59.205Z,1023.9
2017-02-17T02:06:04.063Z,1023.9
2017-02-17T02:07:07.032Z,1023.9
2017-02-17T02:08:09.170Z,1023.9
2017-02-17T02:09:11.969Z,1023.9
2017-02-17T02:10:14.773Z,1023.9
2017-02-17T02:11:16.903Z,1023.9
2017-02-17T02:12:19.869Z,1023.9
2017-02-17T02:13:22.320Z,1023.9
2017-02-17T02:14:24.778Z,1023.9
2017-02-17T02:15:27.235Z,1023.9
2017-02-17T02:17:32.623Z,1023.9
2017-02-17T02:18:35.084Z,1023.8
2017-02-17T02:19:37.563Z,1023.9
2017-02-17T02:20:40.549Z,1023.8
2017-02-17T02:21:43.009Z,1023.9
2017-02-17T02:22:45.482Z,1023.9
2017-02-17T02:23:47.953Z,1023.8
2017-02-17T02:25:53.324Z,1023.7
2017-02-17T02:26:55.782Z,1023.7
2017-02-17T02:27:58.258Z,1023.7
2017-02-17T02:29:01.211Z,1023.7
2017-02-17T02:30:03.677Z,1023.8
2017-02-17T02:31:06.140Z,1023.7
2017-02-17T02:32:08.602Z,1023.7
2017-02-17T02:33:11.068Z,1023.7
2017-02-17T02:34:14.029Z,1023.7
2017-02-17T02:35:16.480Z,1023.7
2017-02-17T02:36:18.935Z,1023.7
2017-02-17T02:37:21.387Z,1023.7
2017-02-17T02:38:24.341Z,1023.7
2017-02-17T02:39:26.801Z,1023.7
2017-02-17T02:40:29.282Z,1023.7
2017-02-17T02:41:31.744Z,1023.6
2017-02-17T02:42:34.700Z,1023.6
2017-02-17T02:43:37.160Z,1023.6
2017-02-17T02:44:39.503Z,1023.6
2017-02-17T02:45:42.473Z,1023.6
2017-02-17T02:46:44.939Z,1023.6
2017-02-17T02:47:47.392Z,1023.6
2017-02-17T02:48:50.195Z,1023.6
2017-02-17T02:49:52.661Z,1023.6
2017-02-17T02:50:55.129Z,1023.6
2017-02-17T02:51:57.579Z,1023.7
2017-02-17T02:53:00.076Z,1023.6
2017-02-17T02:54:03.032Z,1023.6
2017-02-17T02:55:05.501Z,1023.6
2017-02-17T02:56:07.962Z,1023.6
2017-02-17T02:57:10.446Z,1023.6
2017-02-17T02:58:13.421Z,1023.6
2017-02-17T02:59:15.881Z,1023.6
2017-02-17T03:00:18.334Z,1023.6
2017-02-17T03:01:20.799Z,1023.6
2017-02-17T03:02:23.591Z,1023.6
2017-02-17T03:03:26.067Z,1023.6
2017-02-17T03:04:28.527Z,1023.6
2017-02-17T03:05:30.990Z,1023.6
2017-02-17T03:06:33.975Z,1023.7
2017-02-17T03:07:36.428Z,1023.6
2017-02-17T03:08:38.913Z,1023.6
2017-02-17T03:09:41.387Z,1023.6
2017-02-17T03:10:44.219Z,1023.6
2017-02-17T03:11:46.687Z,1023.6
2017-02-17T03:12:49.148Z,1023.6
2017-02-17T03:13:52.101Z,1023.6
2017-02-17T03:14:54.581Z,1023.6
2017-02-17T03:15:57.048Z,1023.5
2017-02-17T03:16:59.834Z,1023.5
2017-02-17T03:18:02.302Z,1023.5
2017-02-17T03:19:04.757Z,1023.5
2017-02-17T03:20:07.547Z,1023.5
2017-02-17T03:21:09.997Z,1023.5
2017-02-17T03:22:12.448Z,1023.5
2017-02-17T03:23:15.065Z,1023.5
2017-02-17T03:24:17.517Z,1023.5
2017-02-17T03:25:20.473Z,1023.5
2017-02-17T03:26:22.768Z,1023.5
2017-02-17T03:27:25.214Z,1023.4
2017-02-17T03:28:28.202Z,1023.4
2017-02-17T03:29:30.676Z,1023.5
2017-02-17T03:30:33.141Z,1023.4
2017-02-17T03:31:35.595Z,1023.4
2017-02-17T03:32:38.066Z,1023.3
2017-02-17T03:33:41.042Z,1023.3
2017-02-17T03:34:43.493Z,1023.2
2017-02-17T03:35:45.946Z,1023.2
2017-02-17T03:36:48.730Z,1023.3
2017-02-17T03:37:51.182Z,1023.4
2017-02-17T03:38:53.632Z,1023.4
2017-02-17T03:39:56.080Z,1023.4
2017-02-17T03:40:59.065Z,1023.3
2017-02-17T03:42:01.515Z,1023.3
2017-02-17T03:44:06.380Z,1023.3
2017-02-17T03:45:09.164Z,1023.3
2017-02-17T03:46:11.614Z,1023.4
2017-02-17T03:47:14.237Z,1023.4
2017-02-17T03:48:16.690Z,1023.5
2017-02-17T03:49:19.485Z,1023.4
2017-02-17T03:50:21.853Z,1023.4
2017-02-17T03:51:24.803Z,1023.5
2017-02-17T03:52:27.110Z,1023.4
2017-02-17T03:53:30.075Z,1023.4
2017-02-17T03:54:32.529Z,1023.4
2017-02-17T03:55:34.991Z,1023.4
2017-02-17T03:56:37.486Z,1023.4
2017-02-17T03:57:39.948Z,1023.4
2017-02-17T03:58:42.918Z,1023.4
2017-02-17T03:59:45.389Z,1023.4
2017-02-17T04:00:47.859Z,1023.4
2017-02-17T04:01:50.340Z,1023.4
2017-02-17T04:02:52.804Z,1023.4
2017-02-17T04:03:55.770Z,1023.4
2017-02-17T04:04:58.271Z,1023.4
2017-02-17T04:06:00.732Z,1023.4
2017-02-17T04:07:03.189Z,1023.4
2017-02-17T04:08:06.024Z,1023.4
2017-02-17T04:09:08.384Z,1023.4
2017-02-17T04:10:10.858Z,1023.4
2017-02-17T04:11:13.831Z,1023.4
2017-02-17T04:13:18.725Z,1023.4
2017-02-17T04:14:21.179Z,1023.4
2017-02-17T04:15:24.130Z,1023.4
2017-02-17T04:16:26.596Z,1023.3
2017-02-17T04:17:29.057Z,1023.3
2017-02-17T04:18:31.510Z,1023.3
2017-02-17T04:19:34.472Z,1023.3
2017-02-17T04:20:36.931Z,1023.2
2017-02-17T04:21:39.397Z,1023.3
2017-02-17T04:22:41.855Z,1023.2
2017-02-17T04:23:44.342Z,1023.2
2017-02-17T04:24:47.295Z,1023.3
2017-02-17T04:25:49.744Z,1023.3
2017-02-17T04:26:52.196Z,1023.3
2017-02-17T04:27:54.650Z,1023.3
2017-02-17T04:28:57.629Z,1023.3
2017-02-17T04:30:00.089Z,1023.3
2017-02-17T04:31:02.549Z,1023.2
2017-02-17T04:32:05.026Z,1023.2
2017-02-17T04:33:08.001Z,1023.2
2017-02-17T04:34:10.467Z,1023.2
2017-02-17T04:35:12.768Z,1023.2
2017-02-17T04:36:15.565Z,1023.2
2017-02-17T04:37:18.032Z,1023.2
2017-02-17T04:38:20.497Z,1023.2
2017-02-17T04:39:23.449Z,1023.2
2017-02-17T04:40:25.911Z,1023.1
2017-02-17T04:41:28.368Z,1023.1
2017-02-17T04:42:30.832Z,1023.1
2017-02-17T04:44:36.192Z,1023.1
2017-02-17T04:45:38.655Z,1023
2017-02-17T04:46:41.140Z,1023
2017-02-17T04:47:44.099Z,1023
2017-02-17T04:48:46.550Z,1023.1
2017-02-17T04:49:49.013Z,1023.1
2017-02-17T04:50:51.477Z,1023.1
2017-02-17T04:51:53.935Z,1023.1
2017-02-17T04:52:56.901Z,1023.1
2017-02-17T04:53:59.362Z,1023.1
2017-02-17T04:55:01.811Z,1023.1
2017-02-17T04:56:04.271Z,1023.1
2017-02-17T04:57:07.253Z,1023
2017-02-17T04:58:09.570Z,1023.1
2017-02-17T04:59:12.021Z,1023.1
2017-02-17T05:00:14.975Z,1023.1
2017-02-17T05:01:17.437Z,1023.1
2017-02-17T05:02:19.892Z,1023
2017-02-17T05:03:22.346Z,1023
2017-02-17T05:04:24.843Z,1023
2017-02-17T05:05:27.812Z,1023.1
2017-02-17T05:06:30.260Z,1023.1
2017-02-17T05:07:32.706Z,1023
2017-02-17T05:08:35.175Z,1023.1
2017-02-17T05:09:38.144Z,1023.1
2017-02-17T05:10:40.592Z,1023.1
2017-02-17T05:11:43.053Z,1023.1
2017-02-17T05:12:45.503Z,1023.1
2017-02-17T05:13:48.486Z,1023
2017-02-17T05:14:50.935Z,1023.1
2017-02-17T05:15:53.417Z,1023
2017-02-17T05:16:55.871Z,1023
2017-02-17T05:17:58.319Z,1023
2017-02-17T05:19:01.296Z,1023
2017-02-17T05:20:03.756Z,1023
2017-02-17T05:21:06.219Z,1023
2017-02-17T05:22:08.667Z,1023
2017-02-17T05:23:11.636Z,1023
2017-02-17T05:25:16.493Z,1023
2017-02-17T05:26:18.941Z,1023
2017-02-17T05:27:21.908Z,1023
2017-02-17T05:28:24.221Z,1022.9
2017-02-17T05:29:26.696Z,1022.9
2017-02-17T05:30:29.680Z,1022.9
2017-02-17T05:31:31.980Z,1022.9
2017-02-17T05:32:34.441Z,1022.9
2017-02-17T05:33:37.407Z,1022.8
2017-02-17T05:34:39.859Z,1022.8
2017-02-17T05:36:44.713Z,1022.8
2017-02-17T05:37:47.673Z,1022.8
2017-02-17T05:38:50.121Z,1022.8
2017-02-17T05:39:52.584Z,1022.8
2017-02-17T05:40:55.037Z,1022.8
2017-02-17T05:41:57.988Z,1022.7
2017-02-17T05:43:00.299Z,1022.8
2017-02-17T05:44:02.758Z,1022.8
2017-02-17T05:45:05.211Z,1022.8
2017-02-17T05:46:08.196Z,1022.8
2017-02-17T05:47:10.488Z,1022.9
2017-02-17T05:48:12.948Z,1022.8
2017-02-17T05:49:15.921Z,1022.9
2017-02-17T05:53:26.112Z,1022.8
2017-02-17T05:54:28.557Z,1022.7
2017-02-17T06:06:59.547Z,1022.8
2017-02-17T06:08:02.008Z,1022.8
2017-02-17T06:09:04.477Z,1022.9
2017-02-17T06:10:06.946Z,1022.8
2017-02-17T06:12:11.984Z,1022.9
2017-02-17T06:13:14.773Z,1022.9
2017-02-17T06:14:17.225Z,1022.9
2017-02-17T06:15:20.027Z,1022.9
2017-02-17T06:16:22.511Z,1022.9
2017-02-17T06:17:24.971Z,1022.9
2017-02-17T06:18:27.428Z,1022.9
2017-02-17T06:19:30.408Z,1023
2017-02-17T06:20:32.949Z,1022.9
2017-02-17T06:21:35.238Z,1022.9
2017-02-17T06:22:37.693Z,1022.9
2017-02-17T06:24:43.082Z,1022.9
2017-02-17T06:25:45.543Z,1023
2017-02-17T06:27:50.933Z,1022.9
2017-02-17T06:30:58.191Z,1022.9
2017-02-17T06:32:01.208Z,1022.9
2017-02-17T06:33:03.416Z,1023
2017-02-17T06:34:05.864Z,1022.9
2017-02-17T06:35:08.660Z,1022.9
2017-02-17T06:36:11.118Z,1022.9
2017-02-17T06:37:13.566Z,1022.9
2017-02-17T06:38:16.528Z,1022.9
2017-02-17T06:40:21.730Z,1022.9
2017-02-17T06:42:26.596Z,1022.9
2017-02-17T06:43:29.054Z,1023
2017-02-17T06:44:31.522Z,1023
2017-02-17T06:57:02.439Z,1023.1
2017-02-17T07:02:15.521Z,1023.1
2017-02-17T07:05:23.298Z,1023.1
2017-02-17T07:06:25.582Z,1023
2017-02-17T07:07:28.044Z,1023
2017-02-17T07:08:30.997Z,1023
2017-02-17T07:09:33.521Z,1023
2017-02-17T07:10:35.803Z,1023
2017-02-17T07:11:38.256Z,1023
2017-02-17T07:12:41.235Z,1023
2017-02-17T07:13:43.721Z,1022.9
2017-02-17T07:14:46.184Z,1022.9
2017-02-17T07:15:48.661Z,1022.9
2017-02-17T07:16:51.115Z,1022.9
2017-02-17T07:17:54.079Z,1022.9
2017-02-17T07:18:56.527Z,1022.9
2017-02-17T07:19:58.977Z,1022.9
2017-02-17T07:21:01.433Z,1022.9
2017-02-17T07:23:06.790Z,1022.9
2017-02-17T07:24:09.253Z,1022.9
2017-02-17T07:25:11.723Z,1022.9
2017-02-17T07:26:14.177Z,1022.9
2017-02-17T07:27:16.971Z,1022.9
2017-02-17T07:28:19.760Z,1022.8
2017-02-17T07:29:22.213Z,1022.9
2017-02-17T07:30:24.692Z,1022.9
2017-02-17T07:31:27.145Z,1022.9
2017-02-17T07:32:29.626Z,1022.9
2017-02-17T07:33:32.586Z,1022.9
2017-02-17T07:34:34.886Z,1022.8
2017-02-17T07:35:37.339Z,1022.9
2017-02-17T07:36:40.296Z,1022.8
2017-02-17T07:37:42.748Z,1022.9
2017-02-17T07:39:47.616Z,1022.9
2017-02-17T07:40:50.574Z,1022.9
2017-02-17T07:41:53.032Z,1022.9
2017-02-17T07:42:23.294Z,1022.9
2017-02-17T07:42:55.549Z,1022.9
2017-02-17T07:43:58.009Z,1022.9
2017-02-17T07:45:00.470Z,1022.9
2017-02-17T07:46:03.437Z,1022.9
2017-02-17T07:47:05.890Z,1022.9
2017-02-17T07:48:08.363Z,1022.9
2017-02-17T07:49:10.856Z,1022.9
2017-02-17T07:50:13.314Z,1022.9
2017-02-17T07:51:16.281Z,1022.9
2017-02-17T07:52:18.753Z,1022.9
2017-02-17T07:53:21.243Z,1022.9
2017-02-17T07:54:23.703Z,1022.9
2017-02-17T07:55:26.174Z,1022.9
2017-02-17T07:56:29.129Z,1022.9
2017-02-17T07:57:31.413Z,1022.9
2017-02-17T07:58:33.860Z,1022.9
2017-02-17T07:59:36.813Z,1022.9
2017-02-17T08:00:39.267Z,1022.9
2017-02-17T08:01:41.748Z,1022.9
2017-02-17T08:02:44.211Z,1022.9
2017-02-17T08:03:46.686Z,1022.9
2017-02-17T08:04:49.641Z,1022.9
2017-02-17T08:05:52.099Z,1022.9
2017-02-17T08:06:54.548Z,1023
2017-02-17T08:07:57.014Z,1022.9
2017-02-17T08:08:59.987Z,1022.9
2017-02-17T08:10:02.439Z,1022.9
2017-02-17T08:11:04.907Z,1022.9
2017-02-17T08:12:07.377Z,1022.9
2017-02-17T08:13:10.168Z,1022.9
2017-02-17T08:14:12.633Z,1022.9
2017-02-17T08:15:15.122Z,1022.9
2017-02-17T08:16:17.570Z,1022.9
2017-02-17T08:17:20.523Z,1022.9
2017-02-17T08:18:22.984Z,1022.9
2017-02-17T08:19:25.434Z,1022.9
2017-02-17T08:20:27.882Z,1022.9
2017-02-17T08:22:33.258Z,1022.9
2017-02-17T08:23:36.049Z,1022.8
2017-02-17T08:24:38.502Z,1022.8
2017-02-17T08:25:40.963Z,1022.8
2017-02-17T08:26:43.416Z,1022.8
2017-02-17T08:27:45.870Z,1022.8
2017-02-17T08:28:48.886Z,1022.8
2017-02-17T08:29:51.344Z,1022.9
2017-02-17T08:30:53.803Z,1022.8
2017-02-17T08:31:56.252Z,1022.8
2017-02-17T08:32:59.217Z,1022.8
2017-02-17T08:34:01.524Z,1022.8
2017-02-17T08:35:04.324Z,1022.8
2017-02-17T08:36:06.780Z,1022.8
2017-02-17T08:37:09.414Z,1022.8
2017-02-17T08:38:11.868Z,1022.8
2017-02-17T08:39:14.324Z,1022.8
2017-02-17T08:40:16.810Z,1022.8
2017-02-17T08:41:19.596Z,1022.7
2017-02-17T08:42:22.076Z,1022.8
2017-02-17T08:43:24.533Z,1022.8
2017-02-17T08:45:29.733Z,1022.7
2017-02-17T08:46:32.708Z,1022.7
2017-02-17T08:47:35.187Z,1022.7
2017-02-17T08:48:37.647Z,1022.8
2017-02-17T08:49:40.435Z,1022.8
2017-02-17T08:50:42.887Z,1022.7
2017-02-17T08:51:45.364Z,1022.8
2017-02-17T08:52:47.817Z,1022.7
2017-02-17T08:54:53.176Z,1022.7
2017-02-17T08:55:55.626Z,1022.7
2017-02-17T08:56:58.117Z,1022.7
2017-02-17T08:58:01.104Z,1022.7
2017-02-17T08:59:03.579Z,1022.6
2017-02-17T09:00:06.100Z,1022.6
2017-02-17T09:01:08.611Z,1022.6
2017-02-17T09:02:11.079Z,1022.6
2017-02-17T09:03:14.036Z,1022.5
2017-02-17T09:04:16.515Z,1022.5
2017-02-17T09:05:18.977Z,1022.6
2017-02-17T09:06:21.432Z,1022.5
2017-02-17T09:07:24.392Z,1022.5
2017-02-17T09:08:26.851Z,1022.5
2017-02-17T09:09:29.316Z,1022.5
2017-02-17T09:10:31.769Z,1022.5
2017-02-17T09:11:34.737Z,1022.5
2017-02-17T09:12:37.024Z,1022.4
2017-02-17T09:13:39.521Z,1022.5
2017-02-17T09:15:44.885Z,1022.5
2017-02-17T09:16:47.359Z,1022.5
2017-02-17T09:17:49.826Z,1022.4
2017-02-17T09:18:52.781Z,1022.4
2017-02-17T09:19:55.228Z,1022.4
2017-02-17T09:20:57.684Z,1022.4
2017-02-17T09:22:00.471Z,1022.4
2017-02-17T09:23:02.927Z,1022.4
2017-02-17T09:24:05.390Z,1022.4
2017-02-17T09:25:08.356Z,1022.4
2017-02-17T09:26:10.644Z,1022.4
2017-02-17T09:27:13.623Z,1022.4
2017-02-17T09:28:15.774Z,1022.4
2017-02-17T09:29:18.594Z,1022.5
2017-02-17T09:30:21.040Z,1022.5
2017-02-17T09:31:24.012Z,1022.5
2017-02-17T09:32:26.520Z,1022.5
2017-02-17T09:33:28.812Z,1022.5
2017-02-17T09:34:31.608Z,1022.5
2017-02-17T09:35:34.072Z,1022.5
2017-02-17T09:36:37.017Z,1022.5
2017-02-17T09:37:39.469Z,1022.5
2017-02-17T09:38:41.930Z,1022.5
2017-02-17T09:39:44.391Z,1022.5
2017-02-17T09:40:47.342Z,1022.4
2017-02-17T09:41:49.793Z,1022.4
2017-02-17T09:42:52.249Z,1022.4
2017-02-17T09:43:55.209Z,1022.4
2017-02-17T09:44:57.670Z,1022.5
2017-02-17T09:46:00.123Z,1022.4
2017-02-17T09:47:02.769Z,1022.4
2017-02-17T09:48:05.220Z,1022.4
2017-02-17T09:49:08.000Z,1022.3
2017-02-17T09:50:10.452Z,1022.4
2017-02-17T09:51:13.405Z,1022.4
2017-02-17T09:52:15.879Z,1022.4
2017-02-17T09:53:18.343Z,1022.4
2017-02-17T09:54:20.818Z,1022.4
2017-02-17T09:56:26.183Z,1022.4
2017-02-17T09:57:28.642Z,1022.4
2017-02-17T09:58:31.607Z,1022.4
2017-02-17T09:59:34.081Z,1022.3
2017-02-17T10:00:36.554Z,1022.3
2017-02-17T10:01:39.005Z,1022.4
2017-02-17T10:03:44.384Z,1022.3
2017-02-17T10:04:46.845Z,1022.4
2017-02-17T10:06:52.211Z,1022.3
2017-02-17T10:07:54.686Z,1022.4
2017-02-17T10:10:00.060Z,1022.3
2017-02-17T10:11:02.549Z,1022.3
2017-02-17T10:12:05.509Z,1022.4
2017-02-17T10:13:07.986Z,1022.3
2017-02-17T10:14:10.270Z,1022.3
2017-02-17T10:15:13.225Z,1022.4
2017-02-17T10:16:15.523Z,1022.4
2017-02-17T10:17:18.475Z,1022.4
2017-02-17T10:18:20.927Z,1022.4
2017-02-17T10:19:23.400Z,1022.4
2017-02-17T10:21:28.776Z,1022.4
2017-02-17T10:22:31.233Z,1022.3
2017-02-17T10:23:34.206Z,1022.3
2017-02-17T10:24:36.669Z,1022.3
2017-02-17T10:25:38.959Z,1022.3
2017-02-17T10:26:41.918Z,1022.3
2017-02-17T10:27:44.226Z,1022.3
2017-02-17T10:29:49.418Z,1022.3
2017-02-17T10:30:52.373Z,1022.3
2017-02-17T10:31:54.653Z,1022.3
2017-02-17T10:32:57.606Z,1022.2
2017-02-17T10:33:59.900Z,1022.3
2017-02-17T10:35:02.851Z,1022.2
2017-02-17T10:36:05.150Z,1022.3
2017-02-17T10:37:08.109Z,1022.2
2017-02-17T10:38:10.240Z,1022.2
2017-02-17T10:39:13.195Z,1022.2
2017-02-17T10:40:15.661Z,1022.2
2017-02-17T10:41:18.113Z,1022.2
2017-02-17T10:42:21.064Z,1022.2
2017-02-17T10:43:23.519Z,1022.2
2017-02-17T10:44:25.967Z,1022.2
2017-02-17T10:46:31.166Z,1022.2
2017-02-17T10:47:34.117Z,1022
2017-02-17T10:48:36.575Z,1022.2
2017-02-17T10:49:39.030Z,1022
2017-02-17T10:50:41.987Z,1022
2017-02-17T10:52:46.850Z,1022
2017-02-17T10:53:49.843Z,1022
2017-02-17T10:54:52.291Z,1022.2
2017-02-17T10:55:54.743Z,1022.2
2017-02-17T10:56:57.692Z,1022.2
2017-02-17T10:57:59.983Z,1022
2017-02-17T10:59:02.452Z,1022.2
2017-02-17T11:00:05.411Z,1022
2017-02-17T11:01:07.698Z,1022
2017-02-17T11:02:10.316Z,1022
2017-02-17T11:03:13.109Z,1022
2017-02-17T11:04:15.969Z,1021.9
2017-02-17T11:05:18.413Z,1021.9
2017-02-17T11:06:20.867Z,1021.9
2017-02-17T11:07:23.821Z,1021.9
2017-02-17T11:08:26.277Z,1021.9
2017-02-17T11:09:29.060Z,1021.9
2017-02-17T11:10:31.522Z,1021.9
2017-02-17T11:11:33.988Z,1021.9
2017-02-17T11:12:36.472Z,1021.8
2017-02-17T11:13:39.425Z,1021.9
2017-02-17T11:14:41.878Z,1021.8
2017-02-17T11:15:44.330Z,1021.8
2017-02-17T11:16:47.290Z,1021.8
2017-02-17T11:17:49.744Z,1021.8
2017-02-17T11:18:52.195Z,1021.8
2017-02-17T11:19:55.176Z,1021.7
2017-02-17T11:20:57.467Z,1021.8
2017-02-17T11:21:59.946Z,1021.8
2017-02-17T11:24:05.309Z,1021.8
2017-02-17T11:25:08.104Z,1021.8
2017-02-17T11:26:10.581Z,1021.8
2017-02-17T11:27:13.052Z,1021.7
2017-02-17T11:28:16.012Z,1021.7
2017-02-17T11:29:18.462Z,1021.7
2017-02-17T11:30:20.931Z,1021.7
2017-02-17T11:31:23.715Z,1021.7
2017-02-17T11:32:26.171Z,1021.7
2017-02-17T11:33:29.159Z,1021.8
2017-02-17T11:34:31.617Z,1021.7
2017-02-17T11:35:34.065Z,1021.8
2017-02-17T11:36:36.851Z,1021.6
2017-02-17T11:37:39.296Z,1021.7
2017-02-17T11:38:42.263Z,1021.7
2017-02-17T11:39:44.717Z,1021.7
2017-02-17T11:40:47.195Z,1021.7
2017-02-17T11:41:49.643Z,1021.7
2017-02-17T11:42:52.605Z,1021.7
2017-02-17T11:43:54.907Z,1021.7
2017-02-17T11:44:57.706Z,1021.7
2017-02-17T11:46:00.174Z,1021.7
2017-02-17T11:47:02.979Z,1021.6
2017-02-17T11:48:05.443Z,1021.7
2017-02-17T11:50:10.812Z,1021.8
2017-02-17T11:51:13.265Z,1021.8
2017-02-17T11:52:16.217Z,1021.7
2017-02-17T11:53:18.679Z,1021.7
2017-02-17T11:55:24.037Z,1021.7
2017-02-17T11:56:26.490Z,1021.7
2017-02-17T11:57:28.963Z,1021.7
2017-02-17T11:58:31.781Z,1021.6
2017-02-17T11:59:34.233Z,1021.7
2017-02-17T12:01:39.619Z,1021.6
2017-02-17T12:02:42.083Z,1021.6
2017-02-17T12:03:44.876Z,1021.6
2017-02-17T12:04:47.344Z,1021.6
2017-02-17T12:05:50.142Z,1021.6
2017-02-17T12:06:52.619Z,1021.6
2017-02-17T12:07:55.424Z,1021.6
2017-02-17T12:08:57.905Z,1021.6
2017-02-17T12:10:00.700Z,1021.6
2017-02-17T12:12:05.556Z,1021.6
2017-02-17T12:13:08.356Z,1021.6
2017-02-17T12:14:10.812Z,1021.6
2017-02-17T12:15:13.773Z,1021.7
2017-02-17T12:16:16.236Z,1021.6
2017-02-17T12:17:18.694Z,1021.6
2017-02-17T12:18:21.650Z,1021.6
2017-02-17T12:19:24.125Z,1021.6
2017-02-17T12:20:26.594Z,1021.6
2017-02-17T12:21:29.399Z,1021.6
2017-02-17T12:22:31.743Z,1021.6
2017-02-17T12:23:34.252Z,1021.7
2017-02-17T12:24:37.207Z,1021.6
2017-02-17T12:25:39.667Z,1021.6
2017-02-17T12:26:42.113Z,1021.6
2017-02-17T12:27:44.912Z,1021.6
2017-02-17T12:28:47.377Z,1021.6
2017-02-17T12:29:50.333Z,1021.6
2017-02-17T12:30:52.813Z,1021.5
2017-02-17T12:31:55.623Z,1021.6
2017-02-17T12:32:58.074Z,1021.5
2017-02-17T12:34:00.877Z,1021.6
2017-02-17T12:35:03.346Z,1021.5
2017-02-17T12:36:05.811Z,1021.5
2017-02-17T12:37:08.292Z,1021.5
2017-02-17T12:38:11.247Z,1021.5
2017-02-17T12:39:13.547Z,1021.5
2017-02-17T12:41:18.907Z,1021.5
2017-02-17T12:42:21.364Z,1021.5
2017-02-17T12:44:26.754Z,1021.5
2017-02-17T12:45:29.258Z,1021.5
2017-02-17T12:46:32.215Z,1021.5
2017-02-17T12:47:34.680Z,1021.5
2017-02-17T12:48:37.132Z,1021.5
2017-02-17T12:49:39.622Z,1021.5
2017-02-17T12:50:42.576Z,1021.5
2017-02-17T12:51:45.066Z,1021.5
2017-02-17T12:52:47.512Z,1021.5
2017-02-17T12:53:50.482Z,1021.5
2017-02-17T12:54:52.969Z,1021.5
2017-02-17T12:55:55.416Z,1021.5
2017-02-17T12:56:57.862Z,1021.5
2017-02-17T12:58:00.812Z,1021.5
2017-02-17T12:59:03.255Z,1021.5
2017-02-17T13:00:05.719Z,1021.6
2017-02-17T13:01:08.511Z,1021.5
2017-02-17T13:02:10.979Z,1021.6
2017-02-17T13:03:13.943Z,1021.5
2017-02-17T13:04:16.388Z,1021.5
2017-02-17T13:05:18.838Z,1021.5
2017-02-17T13:07:24.206Z,1021.6
2017-02-17T13:08:26.679Z,1021.5
2017-02-17T13:09:29.158Z,1021.5
2017-02-17T13:10:31.943Z,1021.6
2017-02-17T13:11:34.435Z,1021.6
2017-02-17T13:12:37.387Z,1021.6
2017-02-17T13:13:39.697Z,1021.6
2017-02-17T13:14:42.651Z,1021.6
2017-02-17T13:15:44.943Z,1021.6
2017-02-17T13:16:47.396Z,1021.6
2017-02-17T13:17:50.356Z,1021.6
2017-02-17T13:18:52.808Z,1021.5
2017-02-17T13:19:55.285Z,1021.5
2017-02-17T13:20:58.239Z,1021.5
2017-02-17T13:22:00.855Z,1021.6
2017-02-17T13:24:05.713Z,1021.6
2017-02-17T13:25:08.673Z,1021.5
2017-02-17T13:26:11.122Z,1021.6
2017-02-17T13:27:13.581Z,1021.6
2017-02-17T13:28:16.042Z,1021.6
2017-02-17T13:29:18.853Z,1021.5
2017-02-17T13:30:21.303Z,1021.6
2017-02-17T13:31:24.270Z,1021.6
2017-02-17T13:32:26.719Z,1021.6
2017-02-17T13:33:29.185Z,1021.6
2017-02-17T13:34:31.640Z,1021.6
2017-02-17T13:35:34.598Z,1021.6
2017-02-17T13:36:36.885Z,1021.5
2017-02-17T13:37:39.680Z,1021.6
2017-02-17T13:38:42.161Z,1021.6
2017-02-17T13:39:44.655Z,1021.6
2017-02-17T13:41:50.028Z,1021.6
2017-02-17T13:47:02.978Z,1021.6
2017-02-17T13:48:05.782Z,1021.6
2017-02-17T13:49:08.235Z,1021.6
2017-02-17T13:50:10.695Z,1021.6
2017-02-17T13:51:13.658Z,1021.6
2017-02-17T13:52:16.113Z,1021.6
2017-02-17T13:53:18.569Z,1021.6
2017-02-17T13:55:23.926Z,1021.6
2017-02-17T13:56:26.398Z,1021.6
2017-02-17T13:57:28.862Z,1021.6
2017-02-17T13:58:31.827Z,1021.7
2017-02-17T13:59:34.276Z,1021.6
2017-02-17T14:00:37.100Z,1021.6
2017-02-17T14:03:44.864Z,1021.7
2017-02-17T14:04:47.310Z,1021.6
2017-02-17T14:05:49.786Z,1021.7
2017-02-17T14:06:52.282Z,1021.7
2017-02-17T14:07:55.247Z,1021.7
2017-02-17T14:08:57.709Z,1021.7
2017-02-17T14:10:00.503Z,1021.7
2017-02-17T14:11:02.971Z,1021.7
2017-02-17T14:12:05.756Z,1021.7
2017-02-17T14:13:08.207Z,1021.7
2017-02-17T14:14:10.653Z,1021.6
2017-02-17T14:15:13.117Z,1021.6
2017-02-17T14:17:18.513Z,1021.6
2017-02-17T14:18:20.967Z,1021.6
2017-02-17T14:19:23.930Z,1021.6
2017-02-17T14:20:26.376Z,1021.6
2017-02-17T14:21:28.856Z,1021.6
2017-02-17T14:22:31.310Z,1021.6
2017-02-17T14:23:34.270Z,1021.6
2017-02-17T14:24:36.723Z,1021.6
2017-02-17T14:25:39.509Z,1021.6
2017-02-17T14:26:41.966Z,1021.7
2017-02-17T14:27:44.434Z,1021.6
2017-02-17T14:28:47.238Z,1021.6
2017-02-17T14:29:49.695Z,1021.6
2017-02-17T14:30:52.149Z,1021.6